SVR153 UUDD-URMM
Flight info
| Callsign | SVR153 |
|---|---|
| Flight time | 2h 56m |
| Altitude | 36000 |
| Route | K0848F360 TOGMO4Q TOGMO M56 ABAGI DCT 530811N0430351E DCT NIMTA DCT NATIT DCT MOLED N50 LIDUS DCT OMIRA DCT AST DCT ZG DCT ITAKA DCT 434533N0483400E DCT AMKOL DCT GOTIK DCT MEMZA A962 OKARU OKARU5A |
| Aircraft | A321/M-SDE3FGHIRWY/LB1 |
Departure
| Time | 2026-04-21 15:25 |
|---|---|
| Airport | Domodedovo International Airport (UUDD) |
Arrival
| Time | 2026-04-21 18:22 |
|---|---|
| Airport | Mineralnye Vody Airport (URMM) |
| Time | Latitude | Longitude | Altitude | Speed | Heading |
|---|---|---|---|---|---|
| 2026-04-21 15:02 | 55.41149 | 37.89980 | 543 ft | 0 kts | 17° |
| 2026-04-21 15:11 | 55.41145 | 37.89977 | 571 ft | 0 kts | 17° |
| 2026-04-21 15:12 | 55.41131 | 37.89970 | 576 ft | 8 kts | 17° |
| 2026-04-21 15:12 | 55.41082 | 37.89991 | 568 ft | 8 kts | 329° |
| 2026-04-21 15:12 | 55.41058 | 37.90035 | 575 ft | 0 kts | 237° |
| 2026-04-21 15:19 | 55.41043 | 37.89995 | 571 ft | 10 kts | 237° |
| 2026-04-21 15:20 | 55.40987 | 37.89849 | 569 ft | 17 kts | 235° |
| 2026-04-21 15:20 | 55.40919 | 37.89674 | 573 ft | 18 kts | 235° |
| 2026-04-21 15:20 | 55.40841 | 37.89509 | 573 ft | 18 kts | 230° |
| 2026-04-21 15:20 | 55.40770 | 37.89326 | 573 ft | 18 kts | 237° |
| 2026-04-21 15:21 | 55.40667 | 37.89310 | 569 ft | 19 kts | 145° |
| 2026-04-21 15:21 | 55.40553 | 37.89450 | 567 ft | 21 kts | 145° |
| 2026-04-21 15:21 | 55.40424 | 37.89604 | 567 ft | 23 kts | 147° |
| 2026-04-21 15:21 | 55.40285 | 37.89767 | 564 ft | 25 kts | 144° |
| 2026-04-21 15:22 | 55.40135 | 37.89950 | 561 ft | 27 kts | 146° |
| 2026-04-21 15:22 | 55.39983 | 37.90132 | 558 ft | 25 kts | 146° |
| 2026-04-21 15:22 | 55.39835 | 37.90310 | 549 ft | 27 kts | 146° |
| 2026-04-21 15:22 | 55.39721 | 37.90447 | 547 ft | 12 kts | 146° |
| 2026-04-21 15:23 | 55.39643 | 37.90539 | 545 ft | 14 kts | 150° |
| 2026-04-21 15:23 | 55.39583 | 37.90486 | 544 ft | 11 kts | 246° |
| 2026-04-21 15:23 | 55.39544 | 37.90364 | 543 ft | 13 kts | 236° |
| 2026-04-21 15:23 | 55.39543 | 37.90296 | 542 ft | 4 kts | 327° |
| 2026-04-21 15:24 | 55.39558 | 37.90280 | 543 ft | 0 kts | 328° |
| 2026-04-21 15:24 | 55.39645 | 37.90177 | 545 ft | 47 kts | 326° |
| 2026-04-21 15:24 | 55.40111 | 37.89616 | 560 ft | 113 kts | 326° |
| 2026-04-21 15:24 | 55.40917 | 37.88647 | 580 ft | 166 kts | 326° |
| 2026-04-21 15:25 | 55.41927 | 37.87500 | 1110 ft | 172 kts | 329° |
| 2026-04-21 15:25 | 55.42798 | 37.86065 | 1980 ft | 172 kts | 316° |
| 2026-04-21 15:25 | 55.43563 | 37.84454 | 2775 ft | 173 kts | 313° |
| 2026-04-21 15:25 | 55.44314 | 37.82741 | 3308 ft | 182 kts | 313° |
| 2026-04-21 15:26 | 55.45179 | 37.81006 | 3735 ft | 194 kts | 318° |
| 2026-04-21 15:26 | 55.46093 | 37.79193 | 4246 ft | 205 kts | 302° |
| 2026-04-21 15:26 | 55.46357 | 37.76600 | 4619 ft | 234 kts | 265° |
| 2026-04-21 15:26 | 55.45714 | 37.73811 | 4991 ft | 260 kts | 239° |
| 2026-04-21 15:27 | 55.44607 | 37.71140 | 5398 ft | 279 kts | 233° |
| 2026-04-21 15:27 | 55.43307 | 37.68568 | 6154 ft | 284 kts | 220° |
| 2026-04-21 15:27 | 55.41509 | 37.67465 | 6814 ft | 286 kts | 177° |
| 2026-04-21 15:27 | 55.39609 | 37.68351 | 7418 ft | 285 kts | 145° |
| 2026-04-21 15:28 | 55.37944 | 37.70343 | 8125 ft | 286 kts | 141° |
| 2026-04-21 15:28 | 55.36348 | 37.72370 | 8887 ft | 288 kts | 139° |
| 2026-04-21 15:28 | 55.34720 | 37.74451 | 9643 ft | 290 kts | 139° |
| 2026-04-21 15:28 | 55.33070 | 37.76532 | 10229 ft | 298 kts | 140° |
| 2026-04-21 15:29 | 55.31317 | 37.78728 | 10372 ft | 320 kts | 141° |
| 2026-04-21 15:29 | 55.29439 | 37.81054 | 10503 ft | 341 kts | 141° |
| 2026-04-21 15:29 | 55.27371 | 37.83323 | 10631 ft | 363 kts | 152° |
| 2026-04-21 15:29 | 55.24905 | 37.84746 | 10756 ft | 383 kts | 163° |
| 2026-04-21 15:30 | 55.22263 | 37.85898 | 10923 ft | 398 kts | 167° |
| 2026-04-21 15:30 | 55.19498 | 37.85168 | 10883 ft | 418 kts | 208° |
| 2026-04-21 15:30 | 55.17053 | 37.82666 | 12059 ft | 396 kts | 194° |
| 2026-04-21 15:30 | 55.14384 | 37.82974 | 13004 ft | 386 kts | 162° |
| 2026-04-21 15:31 | 55.11976 | 37.84995 | 13554 ft | 386 kts | 144° |
| 2026-04-21 15:31 | 55.09890 | 37.87910 | 14146 ft | 385 kts | 141° |
| 2026-04-21 15:31 | 55.07312 | 37.89510 | 14055 ft | 406 kts | 170° |
| 2026-04-21 15:31 | 55.04459 | 37.89805 | 14328 ft | 415 kts | 181° |
| 2026-04-21 15:32 | 55.01582 | 37.90077 | 14874 ft | 414 kts | 167° |
| 2026-04-21 15:32 | 54.98907 | 37.91936 | 15123 ft | 419 kts | 144° |
| 2026-04-21 15:32 | 54.96850 | 37.95398 | 15445 ft | 419 kts | 124° |
| 2026-04-21 15:32 | 54.95239 | 37.99629 | 15867 ft | 421 kts | 119° |
| 2026-04-21 15:33 | 54.93774 | 38.04042 | 16303 ft | 423 kts | 117° |
| 2026-04-21 15:33 | 54.92320 | 38.08513 | 16743 ft | 426 kts | 118° |
| 2026-04-21 15:33 | 54.90805 | 38.12962 | 17173 ft | 429 kts | 119° |
| 2026-04-21 15:33 | 54.89457 | 38.17591 | 17575 ft | 430 kts | 110° |
| 2026-04-21 15:34 | 54.88351 | 38.22435 | 18002 ft | 433 kts | 110° |
| 2026-04-21 15:34 | 54.87226 | 38.27297 | 18392 ft | 435 kts | 110° |
| 2026-04-21 15:34 | 54.86097 | 38.32161 | 18919 ft | 433 kts | 110° |
| 2026-04-21 15:34 | 54.84932 | 38.36960 | 19492 ft | 432 kts | 115° |
| 2026-04-21 15:35 | 54.83478 | 38.41532 | 19950 ft | 433 kts | 117° |
| 2026-04-21 15:35 | 54.82005 | 38.46099 | 20374 ft | 435 kts | 117° |
| 2026-04-21 15:35 | 54.80522 | 38.50689 | 20774 ft | 437 kts | 117° |
| 2026-04-21 15:35 | 54.79030 | 38.55295 | 21168 ft | 439 kts | 117° |
| 2026-04-21 15:36 | 54.77488 | 38.59871 | 21565 ft | 442 kts | 123° |
| 2026-04-21 15:36 | 54.75495 | 38.63940 | 21936 ft | 446 kts | 136° |
| 2026-04-21 15:36 | 54.73011 | 38.67174 | 22305 ft | 449 kts | 148° |
| 2026-04-21 15:36 | 54.70328 | 38.69964 | 22677 ft | 451 kts | 148° |
| 2026-04-21 15:37 | 54.67633 | 38.72755 | 23068 ft | 453 kts | 148° |
| 2026-04-21 15:37 | 54.64920 | 38.75560 | 23441 ft | 455 kts | 148° |
| 2026-04-21 15:37 | 54.62197 | 38.78372 | 23759 ft | 456 kts | 148° |
| 2026-04-21 15:37 | 54.59469 | 38.81197 | 24093 ft | 458 kts | 148° |
| 2026-04-21 15:38 | 54.56767 | 38.84000 | 24395 ft | 459 kts | 148° |
| 2026-04-21 15:38 | 54.53986 | 38.86888 | 24699 ft | 461 kts | 148° |
| 2026-04-21 15:38 | 54.51238 | 38.89742 | 24990 ft | 462 kts | 148° |
| 2026-04-21 15:38 | 54.48516 | 38.92562 | 25255 ft | 464 kts | 148° |
| 2026-04-21 15:39 | 54.45750 | 38.95421 | 25516 ft | 465 kts | 148° |
| 2026-04-21 15:39 | 54.42997 | 38.98347 | 25753 ft | 466 kts | 144° |
| 2026-04-21 15:39 | 54.40506 | 39.01906 | 25972 ft | 466 kts | 134° |
| 2026-04-21 15:39 | 54.38425 | 39.06158 | 26189 ft | 466 kts | 123° |
| 2026-04-21 15:40 | 54.36822 | 39.10974 | 26389 ft | 466 kts | 113° |
| 2026-04-21 15:40 | 54.35587 | 39.16113 | 26583 ft | 466 kts | 111° |
| 2026-04-21 15:40 | 54.34359 | 39.21264 | 26775 ft | 468 kts | 111° |
| 2026-04-21 15:40 | 54.33117 | 39.26425 | 26936 ft | 469 kts | 111° |
| 2026-04-21 15:41 | 54.31865 | 39.31597 | 27105 ft | 470 kts | 112° |
| 2026-04-21 15:41 | 54.30611 | 39.36760 | 27363 ft | 469 kts | 111° |
| 2026-04-21 15:41 | 54.29358 | 39.41911 | 27706 ft | 466 kts | 111° |
| 2026-04-21 15:41 | 54.28127 | 39.46947 | 28579 ft | 453 kts | 112° |
| 2026-04-21 15:42 | 54.26921 | 39.51883 | 29110 ft | 449 kts | 111° |
| 2026-04-21 15:42 | 54.25715 | 39.56803 | 29457 ft | 448 kts | 112° |
| 2026-04-21 15:42 | 54.24508 | 39.61725 | 29710 ft | 450 kts | 112° |
| 2026-04-21 15:42 | 54.23293 | 39.66654 | 29988 ft | 449 kts | 112° |
| 2026-04-21 15:43 | 54.22079 | 39.71563 | 30293 ft | 448 kts | 112° |
| 2026-04-21 15:43 | 54.20862 | 39.76469 | 30532 ft | 449 kts | 112° |
| 2026-04-21 15:43 | 54.20052 | 39.79726 | 30668 ft | 449 kts | 112° |
| 2026-04-21 15:43 | 54.18832 | 39.84630 | 30912 ft | 449 kts | 112° |
| 2026-04-21 15:44 | 54.17201 | 39.91197 | 31215 ft | 449 kts | 112° |
| 2026-04-21 15:44 | 54.16394 | 39.94456 | 31341 ft | 450 kts | 112° |
| 2026-04-21 15:44 | 54.15176 | 39.99373 | 31563 ft | 450 kts | 112° |
| 2026-04-21 15:44 | 54.13950 | 40.04293 | 31783 ft | 450 kts | 112° |
| 2026-04-21 15:45 | 54.12717 | 40.09216 | 31975 ft | 452 kts | 112° |
| 2026-04-21 15:45 | 54.11557 | 40.14191 | 32166 ft | 452 kts | 107° |
| 2026-04-21 15:45 | 54.10659 | 40.19322 | 32354 ft | 452 kts | 106° |
| 2026-04-21 15:45 | 54.09772 | 40.24462 | 32536 ft | 453 kts | 105° |
| 2026-04-21 15:46 | 54.08880 | 40.29612 | 32725 ft | 453 kts | 105° |
| 2026-04-21 15:46 | 54.07986 | 40.34765 | 32920 ft | 454 kts | 106° |
| 2026-04-21 15:46 | 54.07089 | 40.39915 | 33102 ft | 454 kts | 106° |
| 2026-04-21 15:46 | 54.06189 | 40.45074 | 33291 ft | 455 kts | 105° |
| 2026-04-21 15:47 | 54.05285 | 40.50228 | 33478 ft | 455 kts | 106° |
| 2026-04-21 15:47 | 54.04387 | 40.55324 | 33664 ft | 455 kts | 106° |
| 2026-04-21 15:47 | 54.03474 | 40.60489 | 33839 ft | 456 kts | 106° |
| 2026-04-21 15:47 | 54.02565 | 40.65650 | 34003 ft | 456 kts | 106° |
| 2026-04-21 15:48 | 54.01652 | 40.70815 | 34152 ft | 456 kts | 106° |
| 2026-04-21 15:48 | 54.00733 | 40.75992 | 34273 ft | 458 kts | 106° |
| 2026-04-21 15:48 | 53.99812 | 40.81166 | 34415 ft | 458 kts | 107° |
| 2026-04-21 15:48 | 53.98889 | 40.86343 | 34560 ft | 458 kts | 106° |
| 2026-04-21 15:49 | 53.97960 | 40.91534 | 34690 ft | 459 kts | 107° |
| 2026-04-21 15:49 | 53.97028 | 40.96710 | 34916 ft | 457 kts | 107° |
| 2026-04-21 15:49 | 53.96098 | 41.01839 | 35219 ft | 453 kts | 107° |
| 2026-04-21 15:49 | 53.95183 | 41.06941 | 35517 ft | 450 kts | 106° |
| 2026-04-21 15:50 | 53.94316 | 41.12052 | 35646 ft | 451 kts | 105° |
| 2026-04-21 15:50 | 53.93480 | 41.17192 | 35774 ft | 452 kts | 105° |
| 2026-04-21 15:50 | 53.92660 | 41.22339 | 35901 ft | 453 kts | 105° |
| 2026-04-21 15:50 | 53.91834 | 41.27519 | 35920 ft | 457 kts | 105° |
| 2026-04-21 15:51 | 53.90136 | 41.37980 | 35922 ft | 462 kts | 105° |
| 2026-04-21 15:51 | 53.88387 | 41.48481 | 35923 ft | 464 kts | 106° |
| 2026-04-21 15:52 | 53.86612 | 41.58995 | 35923 ft | 464 kts | 106° |
| 2026-04-21 15:52 | 53.84832 | 41.69516 | 35919 ft | 465 kts | 106° |
| 2026-04-21 15:53 | 53.83054 | 41.79974 | 35932 ft | 466 kts | 106° |
| 2026-04-21 15:53 | 53.81251 | 41.90528 | 35925 ft | 467 kts | 106° |
| 2026-04-21 15:54 | 53.79434 | 42.01082 | 35940 ft | 467 kts | 106° |
| 2026-04-21 15:54 | 53.77607 | 42.11640 | 35937 ft | 468 kts | 107° |
| 2026-04-21 15:55 | 53.75763 | 42.22182 | 35939 ft | 468 kts | 107° |
| 2026-04-21 15:55 | 53.73911 | 42.32728 | 35931 ft | 468 kts | 107° |
| 2026-04-21 15:56 | 53.72050 | 42.43262 | 35929 ft | 468 kts | 107° |
| 2026-04-21 15:56 | 53.70182 | 42.53793 | 35922 ft | 468 kts | 107° |
| 2026-04-21 15:57 | 53.67347 | 42.63596 | 35920 ft | 466 kts | 128° |
| 2026-04-21 15:57 | 53.62687 | 42.71039 | 35907 ft | 462 kts | 148° |
| 2026-04-21 15:58 | 53.56976 | 42.75775 | 35915 ft | 461 kts | 158° |
| 2026-04-21 15:58 | 53.51118 | 42.80172 | 35913 ft | 461 kts | 157° |
| 2026-04-21 15:59 | 53.45255 | 42.84570 | 35914 ft | 462 kts | 157° |
| 2026-04-21 15:59 | 53.39389 | 42.88961 | 35922 ft | 462 kts | 158° |
| 2026-04-21 16:00 | 53.33513 | 42.93349 | 35919 ft | 462 kts | 158° |
| 2026-04-21 16:00 | 53.27639 | 42.97721 | 35925 ft | 462 kts | 158° |
| 2026-04-21 16:01 | 53.21768 | 43.02069 | 35922 ft | 462 kts | 158° |
| 2026-04-21 16:01 | 53.15886 | 43.06427 | 35930 ft | 462 kts | 158° |
| 2026-04-21 16:02 | 53.10014 | 43.10763 | 35923 ft | 461 kts | 158° |
| 2026-04-21 16:02 | 53.04177 | 43.15048 | 35919 ft | 461 kts | 158° |
| 2026-04-21 16:03 | 52.98302 | 43.19345 | 35926 ft | 461 kts | 158° |
| 2026-04-21 16:03 | 52.92427 | 43.23626 | 35920 ft | 461 kts | 158° |
| 2026-04-21 16:04 | 52.86553 | 43.27910 | 35920 ft | 461 kts | 158° |
| 2026-04-21 16:04 | 52.80680 | 43.32185 | 35919 ft | 461 kts | 158° |
| 2026-04-21 16:05 | 52.74804 | 43.36432 | 35923 ft | 461 kts | 158° |
| 2026-04-21 16:05 | 52.68924 | 43.40679 | 35919 ft | 461 kts | 158° |
| 2026-04-21 16:06 | 52.63051 | 43.44918 | 35921 ft | 461 kts | 158° |
| 2026-04-21 16:06 | 52.57216 | 43.49105 | 35922 ft | 460 kts | 159° |
| 2026-04-21 16:07 | 52.51344 | 43.53306 | 35925 ft | 460 kts | 159° |
| 2026-04-21 16:07 | 52.45467 | 43.57489 | 35924 ft | 460 kts | 159° |
| 2026-04-21 16:08 | 52.36656 | 43.63745 | 35929 ft | 460 kts | 159° |
| 2026-04-21 16:09 | 52.30778 | 43.67913 | 35918 ft | 460 kts | 159° |
| 2026-04-21 16:09 | 52.24899 | 43.72065 | 35927 ft | 460 kts | 159° |
| 2026-04-21 16:10 | 52.19022 | 43.76220 | 35935 ft | 460 kts | 159° |
| 2026-04-21 16:10 | 52.13141 | 43.80359 | 35938 ft | 460 kts | 159° |
| 2026-04-21 16:11 | 52.07249 | 43.84473 | 35939 ft | 460 kts | 159° |
| 2026-04-21 16:11 | 52.01359 | 43.88560 | 35938 ft | 460 kts | 159° |
| 2026-04-21 16:12 | 51.96473 | 43.91967 | 35940 ft | 460 kts | 159° |
| 2026-04-21 16:12 | 51.89637 | 43.96727 | 35947 ft | 460 kts | 159° |
| 2026-04-21 16:13 | 51.83747 | 44.00800 | 35949 ft | 460 kts | 159° |
| 2026-04-21 16:13 | 51.77863 | 44.04858 | 35944 ft | 460 kts | 160° |
| 2026-04-21 16:14 | 51.71978 | 44.08907 | 35944 ft | 460 kts | 160° |
| 2026-04-21 16:14 | 51.66090 | 44.12945 | 35948 ft | 460 kts | 160° |
| 2026-04-21 16:15 | 51.60196 | 44.16972 | 35954 ft | 460 kts | 160° |
| 2026-04-21 16:15 | 51.54300 | 44.20997 | 35940 ft | 460 kts | 160° |
| 2026-04-21 16:16 | 51.48413 | 44.25018 | 35955 ft | 459 kts | 160° |
| 2026-04-21 16:16 | 51.42563 | 44.29000 | 35958 ft | 459 kts | 160° |
| 2026-04-21 16:17 | 51.36682 | 44.32989 | 35961 ft | 459 kts | 160° |
| 2026-04-21 16:17 | 51.30797 | 44.36947 | 35946 ft | 458 kts | 161° |
| 2026-04-21 16:18 | 51.24927 | 44.40893 | 35957 ft | 457 kts | 160° |
| 2026-04-21 16:18 | 51.19053 | 44.44785 | 35966 ft | 455 kts | 164° |
| 2026-04-21 16:19 | 51.12922 | 44.46552 | 35968 ft | 445 kts | 183° |
| 2026-04-21 16:19 | 51.06771 | 44.46025 | 35970 ft | 443 kts | 186° |
| 2026-04-21 16:20 | 51.00620 | 44.45457 | 35953 ft | 442 kts | 186° |
| 2026-04-21 16:20 | 50.94485 | 44.44904 | 35966 ft | 441 kts | 186° |
| 2026-04-21 16:21 | 50.88367 | 44.44340 | 35970 ft | 440 kts | 186° |
| 2026-04-21 16:21 | 50.82263 | 44.43773 | 35971 ft | 439 kts | 186° |
| 2026-04-21 16:22 | 50.76208 | 44.43214 | 35973 ft | 438 kts | 186° |
| 2026-04-21 16:22 | 50.70125 | 44.42644 | 35972 ft | 438 kts | 186° |
| 2026-04-21 16:23 | 50.64050 | 44.42073 | 35963 ft | 437 kts | 187° |
| 2026-04-21 16:23 | 50.57977 | 44.41514 | 35967 ft | 437 kts | 186° |
| 2026-04-21 16:24 | 50.51912 | 44.40964 | 35967 ft | 436 kts | 186° |
| 2026-04-21 16:24 | 50.45851 | 44.40405 | 35968 ft | 436 kts | 186° |
| 2026-04-21 16:25 | 50.39795 | 44.39849 | 35971 ft | 436 kts | 186° |
| 2026-04-21 16:25 | 50.33734 | 44.39296 | 35948 ft | 436 kts | 187° |
| 2026-04-21 16:26 | 50.27676 | 44.38747 | 35954 ft | 436 kts | 187° |
| 2026-04-21 16:26 | 50.21623 | 44.38205 | 35964 ft | 436 kts | 187° |
| 2026-04-21 16:27 | 50.15574 | 44.37664 | 35968 ft | 435 kts | 187° |
| 2026-04-21 16:27 | 50.09522 | 44.37111 | 35968 ft | 435 kts | 187° |
| 2026-04-21 16:28 | 50.03477 | 44.36557 | 35971 ft | 435 kts | 187° |
| 2026-04-21 16:28 | 49.97427 | 44.36013 | 35954 ft | 435 kts | 187° |
| 2026-04-21 16:29 | 49.92408 | 44.35566 | 35966 ft | 435 kts | 187° |
| 2026-04-21 16:29 | 49.85384 | 44.34944 | 35976 ft | 434 kts | 187° |
| 2026-04-21 16:30 | 49.79350 | 44.34410 | 35980 ft | 434 kts | 187° |
| 2026-04-21 16:30 | 49.73318 | 44.33876 | 35977 ft | 434 kts | 187° |
| 2026-04-21 16:31 | 49.67296 | 44.33340 | 35977 ft | 434 kts | 187° |
| 2026-04-21 16:31 | 49.61268 | 44.32803 | 35974 ft | 434 kts | 187° |
| 2026-04-21 16:32 | 49.55222 | 44.33662 | 35972 ft | 443 kts | 168° |
| 2026-04-21 16:32 | 49.49429 | 44.37157 | 35969 ft | 448 kts | 162° |
| 2026-04-21 16:33 | 49.43666 | 44.40832 | 35967 ft | 448 kts | 162° |
| 2026-04-21 16:33 | 49.38876 | 44.43859 | 35940 ft | 448 kts | 162° |
| 2026-04-21 16:34 | 49.33105 | 44.47498 | 35954 ft | 449 kts | 162° |
| 2026-04-21 16:34 | 49.27330 | 44.51145 | 35959 ft | 449 kts | 162° |
| 2026-04-21 16:35 | 49.20615 | 44.55369 | 35964 ft | 449 kts | 162° |
| 2026-04-21 16:35 | 49.15777 | 44.58409 | 35947 ft | 449 kts | 163° |
| 2026-04-21 16:36 | 49.10035 | 44.62012 | 35977 ft | 448 kts | 163° |
| 2026-04-21 16:36 | 49.04259 | 44.65622 | 35971 ft | 448 kts | 163° |
| 2026-04-21 16:37 | 48.98486 | 44.69221 | 35972 ft | 448 kts | 163° |
| 2026-04-21 16:37 | 48.92713 | 44.72820 | 35966 ft | 448 kts | 163° |
| 2026-04-21 16:38 | 48.86944 | 44.76392 | 35967 ft | 447 kts | 163° |
| 2026-04-21 16:38 | 48.81482 | 44.81031 | 35970 ft | 458 kts | 147° |
| 2026-04-21 16:39 | 48.76473 | 44.87011 | 35974 ft | 458 kts | 147° |
| 2026-04-21 16:39 | 48.71459 | 44.92943 | 36099 ft | 457 kts | 147° |
| 2026-04-21 16:39 | 48.68951 | 44.95900 | 36224 ft | 457 kts | 147° |
| 2026-04-21 16:40 | 48.66445 | 44.98854 | 36346 ft | 457 kts | 147° |
| 2026-04-21 16:40 | 48.63941 | 45.01807 | 36477 ft | 457 kts | 147° |
| 2026-04-21 16:40 | 48.61434 | 45.04761 | 36593 ft | 457 kts | 147° |
| 2026-04-21 16:40 | 48.58927 | 45.07710 | 36728 ft | 457 kts | 147° |
| 2026-04-21 16:41 | 48.56420 | 45.10652 | 36886 ft | 456 kts | 147° |
| 2026-04-21 16:41 | 48.51403 | 45.16530 | 36935 ft | 456 kts | 147° |
| 2026-04-21 16:42 | 48.46384 | 45.22387 | 36959 ft | 456 kts | 148° |
| 2026-04-21 16:42 | 48.41360 | 45.28216 | 36957 ft | 454 kts | 150° |
| 2026-04-21 16:43 | 48.35938 | 45.32735 | 36953 ft | 447 kts | 159° |
| 2026-04-21 16:43 | 48.30356 | 45.36836 | 36939 ft | 447 kts | 159° |
| 2026-04-21 16:44 | 48.24766 | 45.40937 | 36958 ft | 447 kts | 159° |
| 2026-04-21 16:44 | 48.19169 | 45.45040 | 36967 ft | 447 kts | 159° |
| 2026-04-21 16:45 | 48.13567 | 45.49130 | 36973 ft | 448 kts | 159° |
| 2026-04-21 16:45 | 48.07965 | 45.53204 | 36964 ft | 447 kts | 159° |
| 2026-04-21 16:46 | 48.02370 | 45.57275 | 36966 ft | 447 kts | 159° |
| 2026-04-21 16:46 | 47.96772 | 45.61336 | 36972 ft | 447 kts | 159° |
| 2026-04-21 16:47 | 47.91169 | 45.65381 | 36988 ft | 447 kts | 159° |
| 2026-04-21 16:47 | 47.85610 | 45.69382 | 36964 ft | 447 kts | 159° |
| 2026-04-21 16:48 | 47.80018 | 45.73415 | 36983 ft | 446 kts | 159° |
| 2026-04-21 16:48 | 47.74425 | 45.77429 | 36985 ft | 446 kts | 159° |
| 2026-04-21 16:49 | 47.68829 | 45.81438 | 36988 ft | 446 kts | 159° |
| 2026-04-21 16:49 | 47.63232 | 45.85437 | 36978 ft | 446 kts | 159° |
| 2026-04-21 16:50 | 47.57638 | 45.89430 | 36988 ft | 446 kts | 159° |
| 2026-04-21 16:50 | 47.52047 | 45.93412 | 36991 ft | 446 kts | 159° |
| 2026-04-21 16:51 | 47.46452 | 45.97372 | 36994 ft | 446 kts | 159° |
| 2026-04-21 16:51 | 47.40856 | 46.01325 | 36994 ft | 446 kts | 159° |
| 2026-04-21 16:52 | 47.35259 | 46.05277 | 36996 ft | 446 kts | 159° |
| 2026-04-21 16:52 | 47.29669 | 46.09241 | 36992 ft | 446 kts | 159° |
| 2026-04-21 16:53 | 47.24071 | 46.13199 | 36974 ft | 446 kts | 159° |
| 2026-04-21 16:53 | 47.18476 | 46.17131 | 36988 ft | 446 kts | 159° |
| 2026-04-21 16:54 | 47.12878 | 46.21051 | 36994 ft | 446 kts | 159° |
| 2026-04-21 16:54 | 47.07348 | 46.25193 | 36997 ft | 450 kts | 150° |
| 2026-04-21 16:55 | 47.02790 | 46.31513 | 36980 ft | 463 kts | 130° |
| 2026-04-21 16:55 | 46.99305 | 46.39489 | 36993 ft | 465 kts | 127° |
| 2026-04-21 16:56 | 46.95828 | 46.47477 | 37000 ft | 465 kts | 127° |
| 2026-04-21 16:56 | 46.92330 | 46.55448 | 37006 ft | 465 kts | 127° |
| 2026-04-21 16:57 | 46.88839 | 46.63415 | 36991 ft | 465 kts | 127° |
| 2026-04-21 16:57 | 46.85349 | 46.71359 | 37006 ft | 465 kts | 127° |
| 2026-04-21 16:58 | 46.81857 | 46.79301 | 37015 ft | 464 kts | 127° |
| 2026-04-21 16:58 | 46.78359 | 46.87240 | 37020 ft | 464 kts | 127° |
| 2026-04-21 16:59 | 46.74858 | 46.95153 | 37005 ft | 464 kts | 127° |
| 2026-04-21 16:59 | 46.71377 | 47.02987 | 37014 ft | 464 kts | 127° |
| 2026-04-21 17:00 | 46.67867 | 47.10876 | 37021 ft | 463 kts | 127° |
| 2026-04-21 17:00 | 46.64993 | 47.17464 | 37024 ft | 464 kts | 126° |
| 2026-04-21 17:01 | 46.60980 | 47.26740 | 37008 ft | 463 kts | 126° |
| 2026-04-21 17:01 | 46.57530 | 47.34653 | 37022 ft | 463 kts | 127° |
| 2026-04-21 17:02 | 46.54062 | 47.42538 | 37026 ft | 463 kts | 127° |
| 2026-04-21 17:02 | 46.50581 | 47.50427 | 37028 ft | 463 kts | 127° |
| 2026-04-21 17:03 | 46.47109 | 47.58292 | 37016 ft | 463 kts | 127° |
| 2026-04-21 17:03 | 46.43654 | 47.66095 | 37020 ft | 463 kts | 127° |
| 2026-04-21 17:04 | 46.40168 | 47.73949 | 37022 ft | 463 kts | 127° |
| 2026-04-21 17:04 | 46.36677 | 47.81788 | 37028 ft | 463 kts | 127° |
| 2026-04-21 17:05 | 46.33175 | 47.89616 | 37012 ft | 463 kts | 127° |
| 2026-04-21 17:05 | 46.29689 | 47.97444 | 37022 ft | 464 kts | 124° |
| 2026-04-21 17:06 | 46.27317 | 48.06194 | 37021 ft | 474 kts | 106° |
| 2026-04-21 17:06 | 46.25919 | 48.15499 | 37026 ft | 474 kts | 106° |
| 2026-04-21 17:07 | 46.24730 | 48.23218 | 37012 ft | 473 kts | 107° |
| 2026-04-21 17:07 | 46.23053 | 48.34064 | 37023 ft | 473 kts | 107° |
| 2026-04-21 17:08 | 46.21614 | 48.43343 | 37026 ft | 473 kts | 107° |
| 2026-04-21 17:08 | 46.19628 | 48.52281 | 37024 ft | 462 kts | 124° |
| 2026-04-21 17:08 | 46.17865 | 48.56104 | 37025 ft | 454 kts | 135° |
| 2026-04-21 17:09 | 46.13135 | 48.61799 | 37013 ft | 438 kts | 156° |
| 2026-04-21 17:09 | 46.10370 | 48.63545 | 37017 ft | 431 kts | 167° |
| 2026-04-21 17:09 | 46.07535 | 48.64714 | 37019 ft | 430 kts | 168° |
| 2026-04-21 17:10 | 46.01772 | 48.67025 | 37020 ft | 430 kts | 168° |
| 2026-04-21 17:10 | 45.96005 | 48.69341 | 37022 ft | 431 kts | 168° |
| 2026-04-21 17:11 | 45.90232 | 48.71667 | 37025 ft | 431 kts | 168° |
| 2026-04-21 17:11 | 45.84453 | 48.73975 | 37026 ft | 431 kts | 168° |
| 2026-04-21 17:12 | 45.78667 | 48.76277 | 37024 ft | 432 kts | 168° |
| 2026-04-21 17:12 | 45.72876 | 48.78596 | 37010 ft | 432 kts | 168° |
| 2026-04-21 17:13 | 45.67082 | 48.80900 | 37024 ft | 432 kts | 168° |
| 2026-04-21 17:13 | 45.61290 | 48.83189 | 37030 ft | 432 kts | 168° |
| 2026-04-21 17:14 | 45.55489 | 48.85483 | 37031 ft | 432 kts | 168° |
| 2026-04-21 17:14 | 45.49700 | 48.87774 | 37016 ft | 432 kts | 168° |
| 2026-04-21 17:15 | 45.43907 | 48.90056 | 37027 ft | 432 kts | 168° |
| 2026-04-21 17:15 | 45.38116 | 48.92336 | 37034 ft | 432 kts | 168° |
| 2026-04-21 17:16 | 45.32322 | 48.94611 | 37033 ft | 432 kts | 168° |
| 2026-04-21 17:16 | 45.26521 | 48.96874 | 37019 ft | 432 kts | 168° |
| 2026-04-21 17:17 | 45.20764 | 48.99123 | 37026 ft | 432 kts | 168° |
| 2026-04-21 17:17 | 45.14930 | 49.01401 | 37034 ft | 432 kts | 168° |
| 2026-04-21 17:18 | 45.09174 | 49.03647 | 37028 ft | 432 kts | 168° |
| 2026-04-21 17:18 | 45.03373 | 49.05913 | 37022 ft | 432 kts | 168° |
| 2026-04-21 17:19 | 44.97567 | 49.08159 | 37026 ft | 432 kts | 168° |
| 2026-04-21 17:19 | 44.91761 | 49.10394 | 37029 ft | 432 kts | 168° |
| 2026-04-21 17:20 | 44.85957 | 49.12644 | 37031 ft | 433 kts | 168° |
| 2026-04-21 17:20 | 44.80153 | 49.14887 | 37017 ft | 432 kts | 168° |
| 2026-04-21 17:21 | 44.75330 | 49.16741 | 37026 ft | 432 kts | 168° |
| 2026-04-21 17:21 | 44.69520 | 49.18964 | 37033 ft | 433 kts | 168° |
| 2026-04-21 17:22 | 44.63705 | 49.21184 | 37008 ft | 433 kts | 168° |
| 2026-04-21 17:22 | 44.57888 | 49.23404 | 37019 ft | 433 kts | 168° |
| 2026-04-21 17:23 | 44.52070 | 49.25626 | 37027 ft | 433 kts | 168° |
| 2026-04-21 17:23 | 44.46254 | 49.27838 | 37027 ft | 433 kts | 168° |
| 2026-04-21 17:24 | 44.40437 | 49.30045 | 37009 ft | 433 kts | 168° |
| 2026-04-21 17:24 | 44.34618 | 49.32252 | 37030 ft | 433 kts | 168° |
| 2026-04-21 17:25 | 44.28802 | 49.34452 | 37023 ft | 433 kts | 168° |
| 2026-04-21 17:25 | 44.22978 | 49.36644 | 37022 ft | 433 kts | 168° |
| 2026-04-21 17:26 | 44.17192 | 49.38821 | 37007 ft | 433 kts | 168° |
| 2026-04-21 17:26 | 44.11366 | 49.41004 | 37014 ft | 434 kts | 168° |
| 2026-04-21 17:27 | 44.05539 | 49.43185 | 37024 ft | 434 kts | 168° |
| 2026-04-21 17:27 | 43.99716 | 49.45365 | 37006 ft | 434 kts | 168° |
| 2026-04-21 17:28 | 43.93828 | 49.46331 | 37008 ft | 423 kts | 192° |
| 2026-04-21 17:28 | 43.91040 | 49.45135 | 37008 ft | 418 kts | 208° |
| 2026-04-21 17:28 | 43.88649 | 49.42885 | 37004 ft | 416 kts | 224° |
| 2026-04-21 17:29 | 43.86824 | 49.39783 | 36999 ft | 418 kts | 239° |
| 2026-04-21 17:29 | 43.85709 | 49.36064 | 36992 ft | 422 kts | 255° |
| 2026-04-21 17:29 | 43.84714 | 49.28018 | 36991 ft | 425 kts | 258° |
| 2026-04-21 17:30 | 43.83746 | 49.19916 | 36999 ft | 426 kts | 257° |
| 2026-04-21 17:30 | 43.82759 | 49.11809 | 37004 ft | 427 kts | 257° |
| 2026-04-21 17:31 | 43.81761 | 49.03689 | 37010 ft | 428 kts | 257° |
| 2026-04-21 17:31 | 43.80761 | 48.95611 | 37023 ft | 428 kts | 257° |
| 2026-04-21 17:32 | 43.79744 | 48.87482 | 37026 ft | 429 kts | 257° |
| 2026-04-21 17:32 | 43.78732 | 48.79351 | 37033 ft | 429 kts | 258° |
| 2026-04-21 17:33 | 43.77722 | 48.71212 | 37037 ft | 429 kts | 257° |
| 2026-04-21 17:33 | 43.76700 | 48.63072 | 37031 ft | 429 kts | 257° |
| 2026-04-21 17:34 | 43.75671 | 48.54942 | 37026 ft | 429 kts | 257° |
| 2026-04-21 17:34 | 43.74638 | 48.46807 | 37026 ft | 429 kts | 257° |
| 2026-04-21 17:35 | 43.73598 | 48.38677 | 37029 ft | 429 kts | 257° |
| 2026-04-21 17:35 | 43.72549 | 48.30554 | 37028 ft | 429 kts | 257° |
| 2026-04-21 17:36 | 43.71493 | 48.22421 | 37045 ft | 429 kts | 257° |
| 2026-04-21 17:36 | 43.70437 | 48.14300 | 37033 ft | 429 kts | 257° |
| 2026-04-21 17:37 | 43.69376 | 48.06233 | 37033 ft | 429 kts | 257° |
| 2026-04-21 17:37 | 43.68302 | 47.98123 | 37035 ft | 429 kts | 258° |
| 2026-04-21 17:38 | 43.67224 | 47.90008 | 37031 ft | 429 kts | 258° |
| 2026-04-21 17:38 | 43.66137 | 47.81899 | 37028 ft | 429 kts | 257° |
| 2026-04-21 17:39 | 43.65052 | 47.73794 | 37024 ft | 429 kts | 257° |
| 2026-04-21 17:39 | 43.63962 | 47.65685 | 37027 ft | 429 kts | 257° |
| 2026-04-21 17:40 | 43.62861 | 47.57569 | 37014 ft | 429 kts | 257° |
| 2026-04-21 17:40 | 43.61759 | 47.49469 | 37020 ft | 430 kts | 258° |
| 2026-04-21 17:41 | 43.60956 | 47.41287 | 37029 ft | 431 kts | 262° |
| 2026-04-21 17:41 | 43.60379 | 47.33061 | 37022 ft | 431 kts | 263° |
| 2026-04-21 17:42 | 43.59766 | 47.24838 | 37017 ft | 431 kts | 262° |
| 2026-04-21 17:42 | 43.59080 | 47.16630 | 37016 ft | 431 kts | 262° |
| 2026-04-21 17:43 | 43.58365 | 47.08433 | 37008 ft | 431 kts | 262° |
| 2026-04-21 17:43 | 43.57657 | 47.00291 | 37008 ft | 431 kts | 262° |
| 2026-04-21 17:44 | 43.56952 | 46.92093 | 37005 ft | 431 kts | 262° |
| 2026-04-21 17:44 | 43.56244 | 46.83893 | 37003 ft | 431 kts | 262° |
| 2026-04-21 17:45 | 43.55527 | 46.75698 | 37008 ft | 430 kts | 262° |
| 2026-04-21 17:45 | 43.54797 | 46.67506 | 37003 ft | 430 kts | 262° |
| 2026-04-21 17:46 | 43.54064 | 46.59325 | 36999 ft | 430 kts | 262° |
| 2026-04-21 17:46 | 43.53329 | 46.51145 | 36997 ft | 430 kts | 262° |
| 2026-04-21 17:47 | 43.52584 | 46.42966 | 36995 ft | 430 kts | 262° |
| 2026-04-21 17:47 | 43.51841 | 46.34788 | 36985 ft | 430 kts | 262° |
| 2026-04-21 17:48 | 43.51095 | 46.26609 | 36987 ft | 430 kts | 262° |
| 2026-04-21 17:48 | 43.50335 | 46.18445 | 36988 ft | 430 kts | 262° |
| 2026-04-21 17:49 | 43.49565 | 46.10282 | 36992 ft | 430 kts | 262° |
| 2026-04-21 17:49 | 43.49148 | 46.02079 | 36987 ft | 431 kts | 273° |
| 2026-04-21 17:50 | 43.49826 | 45.93871 | 36986 ft | 431 kts | 275° |
| 2026-04-21 17:50 | 43.50524 | 45.85661 | 36982 ft | 431 kts | 275° |
| 2026-04-21 17:51 | 43.51195 | 45.77499 | 37000 ft | 431 kts | 275° |
| 2026-04-21 17:51 | 43.51858 | 45.69296 | 37000 ft | 431 kts | 275° |
| 2026-04-21 17:52 | 43.52517 | 45.61095 | 37005 ft | 430 kts | 275° |
| 2026-04-21 17:52 | 43.53170 | 45.52894 | 36995 ft | 430 kts | 275° |
| 2026-04-21 17:53 | 43.53819 | 45.44701 | 36987 ft | 430 kts | 275° |
| 2026-04-21 17:53 | 43.54463 | 45.36512 | 36983 ft | 430 kts | 275° |
| 2026-04-21 17:54 | 43.55102 | 45.28324 | 36975 ft | 430 kts | 275° |
| 2026-04-21 17:54 | 43.55727 | 45.20138 | 36982 ft | 429 kts | 275° |
| 2026-04-21 17:55 | 43.56349 | 45.11942 | 36979 ft | 429 kts | 275° |
| 2026-04-21 17:55 | 43.56970 | 45.03764 | 36976 ft | 429 kts | 275° |
| 2026-04-21 17:56 | 43.57586 | 44.95585 | 36970 ft | 429 kts | 275° |
| 2026-04-21 17:56 | 43.58199 | 44.87399 | 36962 ft | 429 kts | 274° |
| 2026-04-21 17:57 | 43.58799 | 44.79220 | 36967 ft | 429 kts | 274° |
| 2026-04-21 17:57 | 43.59396 | 44.71044 | 36970 ft | 428 kts | 274° |
| 2026-04-21 17:58 | 43.59688 | 44.67016 | 36787 ft | 426 kts | 275° |
| 2026-04-21 17:58 | 43.59979 | 44.62960 | 36528 ft | 424 kts | 275° |
| 2026-04-21 17:58 | 43.60266 | 44.58923 | 36129 ft | 421 kts | 275° |
| 2026-04-21 17:58 | 43.60549 | 44.54908 | 35509 ft | 421 kts | 275° |
| 2026-04-21 17:59 | 43.60833 | 44.50885 | 34804 ft | 422 kts | 275° |
| 2026-04-21 17:59 | 43.61119 | 44.46842 | 34093 ft | 424 kts | 275° |
| 2026-04-21 17:59 | 43.61406 | 44.42787 | 33260 ft | 425 kts | 275° |
| 2026-04-21 17:59 | 43.61692 | 44.38724 | 32549 ft | 424 kts | 275° |
| 2026-04-21 18:00 | 43.61969 | 44.34714 | 32144 ft | 416 kts | 275° |
| 2026-04-21 18:00 | 43.62238 | 44.30754 | 31649 ft | 412 kts | 275° |
| 2026-04-21 18:00 | 43.62503 | 44.26845 | 31162 ft | 407 kts | 275° |
| 2026-04-21 18:00 | 43.62765 | 44.22981 | 30684 ft | 402 kts | 275° |
| 2026-04-21 18:01 | 43.63053 | 44.19163 | 30197 ft | 397 kts | 279° |
| 2026-04-21 18:01 | 43.63708 | 44.15481 | 29679 ft | 393 kts | 289° |
| 2026-04-21 18:01 | 43.64816 | 44.12057 | 29171 ft | 389 kts | 298° |
| 2026-04-21 18:01 | 43.66323 | 44.08985 | 28679 ft | 385 kts | 308° |
| 2026-04-21 18:02 | 43.67499 | 44.07164 | 28364 ft | 383 kts | 310° |
| 2026-04-21 18:02 | 43.69898 | 44.03582 | 27719 ft | 376 kts | 310° |
| 2026-04-21 18:02 | 43.71657 | 44.00934 | 27255 ft | 372 kts | 310° |
| 2026-04-21 18:02 | 43.73392 | 43.98309 | 26791 ft | 368 kts | 310° |
| 2026-04-21 18:03 | 43.75106 | 43.95703 | 26347 ft | 364 kts | 309° |
| 2026-04-21 18:03 | 43.76799 | 43.93129 | 25905 ft | 360 kts | 309° |
| 2026-04-21 18:03 | 43.78455 | 43.90621 | 25488 ft | 356 kts | 309° |
| 2026-04-21 18:03 | 43.80124 | 43.88097 | 25068 ft | 354 kts | 309° |
| 2026-04-21 18:04 | 43.81783 | 43.85592 | 24654 ft | 351 kts | 309° |
| 2026-04-21 18:04 | 43.83434 | 43.83118 | 24260 ft | 350 kts | 312° |
| 2026-04-21 18:04 | 43.85285 | 43.80917 | 23866 ft | 351 kts | 321° |
| 2026-04-21 18:04 | 43.87379 | 43.79151 | 23484 ft | 353 kts | 327° |
| 2026-04-21 18:05 | 43.89532 | 43.77533 | 23036 ft | 350 kts | 327° |
| 2026-04-21 18:05 | 43.91665 | 43.75926 | 22647 ft | 348 kts | 327° |
| 2026-04-21 18:05 | 43.93788 | 43.74323 | 22250 ft | 346 kts | 327° |
| 2026-04-21 18:05 | 43.95895 | 43.72730 | 21856 ft | 344 kts | 327° |
| 2026-04-21 18:06 | 43.97992 | 43.71142 | 21454 ft | 342 kts | 327° |
| 2026-04-21 18:06 | 44.00074 | 43.69563 | 21046 ft | 340 kts | 327° |
| 2026-04-21 18:06 | 44.02142 | 43.67992 | 20637 ft | 338 kts | 327° |
| 2026-04-21 18:06 | 44.04195 | 43.66431 | 20227 ft | 336 kts | 327° |
| 2026-04-21 18:07 | 44.06238 | 43.64879 | 19819 ft | 333 kts | 327° |
| 2026-04-21 18:07 | 44.08267 | 43.63341 | 19385 ft | 331 kts | 327° |
| 2026-04-21 18:07 | 44.10282 | 43.61814 | 18968 ft | 329 kts | 327° |
| 2026-04-21 18:07 | 44.11607 | 43.60808 | 18690 ft | 327 kts | 327° |
| 2026-04-21 18:08 | 44.14275 | 43.58776 | 18127 ft | 325 kts | 327° |
| 2026-04-21 18:08 | 44.15585 | 43.57773 | 17810 ft | 324 kts | 327° |
| 2026-04-21 18:08 | 44.18192 | 43.55772 | 17250 ft | 322 kts | 327° |
| 2026-04-21 18:08 | 44.20152 | 43.54272 | 16840 ft | 320 kts | 327° |
| 2026-04-21 18:09 | 44.22099 | 43.52781 | 16421 ft | 318 kts | 327° |
| 2026-04-21 18:09 | 44.24034 | 43.51301 | 16011 ft | 317 kts | 327° |
| 2026-04-21 18:09 | 44.25322 | 43.50277 | 15745 ft | 314 kts | 323° |
| 2026-04-21 18:09 | 44.27486 | 43.47744 | 15235 ft | 302 kts | 308° |
| 2026-04-21 18:10 | 44.28742 | 43.45449 | 14829 ft | 295 kts | 299° |
| 2026-04-21 18:10 | 44.29493 | 43.43823 | 14564 ft | 293 kts | 299° |
| 2026-04-21 18:10 | 44.30597 | 43.41444 | 14187 ft | 290 kts | 299° |
| 2026-04-21 18:10 | 44.31690 | 43.39092 | 13812 ft | 287 kts | 299° |
| 2026-04-21 18:11 | 44.32774 | 43.36762 | 13405 ft | 285 kts | 299° |
| 2026-04-21 18:11 | 44.33831 | 43.34485 | 13030 ft | 281 kts | 299° |
| 2026-04-21 18:11 | 44.34888 | 43.32209 | 12664 ft | 277 kts | 299° |
| 2026-04-21 18:11 | 44.35931 | 43.29957 | 12305 ft | 274 kts | 299° |
| 2026-04-21 18:12 | 44.36957 | 43.27739 | 11952 ft | 270 kts | 299° |
| 2026-04-21 18:12 | 44.37972 | 43.25545 | 11606 ft | 267 kts | 299° |
| 2026-04-21 18:12 | 44.38972 | 43.23383 | 11277 ft | 263 kts | 298° |
| 2026-04-21 18:12 | 44.39955 | 43.21252 | 10968 ft | 259 kts | 298° |
| 2026-04-21 18:13 | 44.40932 | 43.19128 | 10639 ft | 264 kts | 298° |
| 2026-04-21 18:13 | 44.41935 | 43.16944 | 10284 ft | 268 kts | 298° |
| 2026-04-21 18:13 | 44.42944 | 43.14754 | 9920 ft | 267 kts | 298° |
| 2026-04-21 18:13 | 44.43947 | 43.12578 | 9543 ft | 266 kts | 298° |
| 2026-04-21 18:14 | 44.45946 | 43.08232 | 8828 ft | 265 kts | 299° |
| 2026-04-21 18:14 | 44.46941 | 43.06064 | 8481 ft | 265 kts | 300° |
| 2026-04-21 18:14 | 44.47935 | 43.03893 | 8126 ft | 264 kts | 299° |
| 2026-04-21 18:15 | 44.48635 | 43.01552 | 7774 ft | 261 kts | 279° |
| 2026-04-21 18:15 | 44.48650 | 42.99032 | 7432 ft | 261 kts | 259° |
| 2026-04-21 18:15 | 44.47986 | 42.96672 | 7067 ft | 263 kts | 238° |
| 2026-04-21 18:15 | 44.46724 | 42.94831 | 6669 ft | 265 kts | 216° |
| 2026-04-21 18:16 | 44.45060 | 42.93710 | 6274 ft | 267 kts | 202° |
| 2026-04-21 18:16 | 44.43330 | 42.92776 | 5859 ft | 264 kts | 202° |
| 2026-04-21 18:16 | 44.41562 | 42.92151 | 5487 ft | 261 kts | 187° |
| 2026-04-21 18:16 | 44.39781 | 42.91894 | 5177 ft | 254 kts | 187° |
| 2026-04-21 18:17 | 44.38067 | 42.91631 | 4871 ft | 248 kts | 187° |
| 2026-04-21 18:17 | 44.36391 | 42.91366 | 4568 ft | 236 kts | 187° |
| 2026-04-21 18:17 | 44.34801 | 42.91114 | 4264 ft | 224 kts | 186° |
| 2026-04-21 18:17 | 44.33272 | 42.90875 | 3978 ft | 218 kts | 185° |
| 2026-04-21 18:18 | 44.31787 | 42.91031 | 3688 ft | 211 kts | 165° |
| 2026-04-21 18:18 | 44.30499 | 42.91850 | 3490 ft | 197 kts | 147° |
| 2026-04-21 18:18 | 44.29542 | 42.93124 | 3271 ft | 184 kts | 128° |
| 2026-04-21 18:18 | 44.28878 | 42.94565 | 3047 ft | 169 kts | 124° |
| 2026-04-21 18:19 | 44.28280 | 42.95893 | 2841 ft | 155 kts | 124° |
| 2026-04-21 18:19 | 44.27733 | 42.97107 | 2633 ft | 142 kts | 124° |
| 2026-04-21 18:19 | 44.27217 | 42.98250 | 2452 ft | 137 kts | 124° |
| 2026-04-21 18:19 | 44.26711 | 42.99372 | 2254 ft | 136 kts | 123° |
| 2026-04-21 18:20 | 44.26208 | 43.00486 | 2064 ft | 136 kts | 123° |
| 2026-04-21 18:20 | 44.25705 | 43.01603 | 1855 ft | 136 kts | 123° |
| 2026-04-21 18:20 | 44.25200 | 43.02724 | 1652 ft | 137 kts | 121° |
| 2026-04-21 18:20 | 44.24692 | 43.03851 | 1472 ft | 136 kts | 121° |
| 2026-04-21 18:21 | 44.24179 | 43.04974 | 1290 ft | 139 kts | 121° |
| 2026-04-21 18:21 | 44.23669 | 43.06113 | 1113 ft | 139 kts | 121° |
| 2026-04-21 18:21 | 44.23153 | 43.07216 | 1052 ft | 126 kts | 117° |
| 2026-04-21 18:21 | 44.22762 | 43.08119 | 1050 ft | 85 kts | 122° |
| 2026-04-21 18:22 | 44.22538 | 43.08613 | 1054 ft | 43 kts | 122° |
| 2026-04-21 18:22 | 44.22397 | 43.08804 | 1052 ft | 28 kts | 153° |
| 2026-04-21 18:22 | 44.22225 | 43.08934 | 1053 ft | 28 kts | 148° |
| 2026-04-21 18:22 | 44.22129 | 43.09013 | 1053 ft | 16 kts | 154° |
| 2026-04-21 18:23 | 44.22024 | 43.09086 | 1051 ft | 18 kts | 153° |
| 2026-04-21 18:23 | 44.21907 | 43.09098 | 1051 ft | 19 kts | 210° |
| 2026-04-21 18:23 | 44.21837 | 43.09053 | 1051 ft | 11 kts | 174° |
| 2026-04-21 18:23 | 44.21788 | 43.09136 | 1051 ft | 12 kts | 125° |
| 2026-04-21 18:24 | 44.21732 | 43.09149 | 1051 ft | 8 kts | 217° |
| 2026-04-21 18:24 | 44.21697 | 43.09117 | 1051 ft | 0 kts | 213° |